sensor_id;sensor_type;location;lat;lon;timestamp;P1;durP1;ratioP1;P2;durP2;ratioP2
14698;SDS011;7439;50.804;4.602;2022-12-24T00:01:49;104.43;;;97.53;;
14698;SDS011;7439;50.804;4.602;2022-12-24T00:04:16;105.07;;;98.47;;
14698;SDS011;7439;50.804;4.602;2022-12-24T00:06:44;101.43;;;94.07;;
14698;SDS011;7439;50.804;4.602;2022-12-24T00:09:12;95.77;;;88.73;;
14698;SDS011;7439;50.804;4.602;2022-12-24T00:11:40;100.23;;;93.93;;
14698;SDS011;7439;50.804;4.602;2022-12-24T00:14:07;104.10;;;97.03;;
14698;SDS011;7439;50.804;4.602;2022-12-24T00:16:35;98.43;;;92.70;;
14698;SDS011;7439;50.804;4.602;2022-12-24T00:19:02;99.43;;;92.87;;
14698;SDS011;7439;50.804;4.602;2022-12-24T00:21:29;102.47;;;95.50;;
14698;SDS011;7439;50.804;4.602;2022-12-24T00:23:57;101.83;;;94.87;;
14698;SDS011;7439;50.804;4.602;2022-12-24T00:26:26;100.13;;;93.17;;
14698;SDS011;7439;50.804;4.602;2022-12-24T00:28:54;99.37;;;92.47;;
14698;SDS011;7439;50.804;4.602;2022-12-24T00:31:21;99.30;;;92.20;;
14698;SDS011;7439;50.804;4.602;2022-12-24T00:33:49;152.50;;;143.30;;
14698;SDS011;7439;50.804;4.602;2022-12-24T00:36:17;618.13;;;586.53;;
14698;SDS011;7439;50.804;4.602;2022-12-24T00:38:44;795.33;;;749.67;;
14698;SDS011;7439;50.804;4.602;2022-12-24T00:41:12;787.60;;;742.17;;
14698;SDS011;7439;50.804;4.602;2022-12-24T00:43:51;766.23;;;723.77;;
14698;SDS011;7439;50.804;4.602;2022-12-24T00:46:19;765.33;;;722.13;;
14698;SDS011;7439;50.804;4.602;2022-12-24T00:48:46;763.93;;;718.57;;
14698;SDS011;7439;50.804;4.602;2022-12-24T00:51:14;750.13;;;707.23;;
14698;SDS011;7439;50.804;4.602;2022-12-24T00:53:41;754.17;;;710.80;;
14698;SDS011;7439;50.804;4.602;2022-12-24T00:56:09;730.73;;;689.33;;
14698;SDS011;7439;50.804;4.602;2022-12-24T00:58:36;715.00;;;674.60;;
14698;SDS011;7439;50.804;4.602;2022-12-24T01:01:05;700.73;;;661.67;;
14698;SDS011;7439;50.804;4.602;2022-12-24T01:03:33;679.93;;;642.23;;
14698;SDS011;7439;50.804;4.602;2022-12-24T01:06:00;681.37;;;643.27;;
14698;SDS011;7439;50.804;4.602;2022-12-24T01:08:27;696.60;;;657.37;;
14698;SDS011;7439;50.804;4.602;2022-12-24T01:10:54;711.13;;;669.90;;
14698;SDS011;7439;50.804;4.602;2022-12-24T01:13:22;725.60;;;682.70;;
14698;SDS011;7439;50.804;4.602;2022-12-24T01:15:49;731.33;;;688.47;;
14698;SDS011;7439;50.804;4.602;2022-12-24T01:18:18;758.07;;;713.87;;
14698;SDS011;7439;50.804;4.602;2022-12-24T01:20:47;835.53;;;785.57;;
14698;SDS011;7439;50.804;4.602;2022-12-24T01:23:21;870.43;;;817.73;;
14698;SDS011;7439;50.804;4.602;2022-12-24T01:25:48;899.83;;;843.57;;
14698;SDS011;7439;50.804;4.602;2022-12-24T01:28:15;929.10;;;869.67;;
14698;SDS011;7439;50.804;4.602;2022-12-24T01:30:43;956.40;;;894.57;;
14698;SDS011;7439;50.804;4.602;2022-12-24T01:33:10;981.70;;;916.27;;
14698;SDS011;7439;50.804;4.602;2022-12-24T01:35:39;999.17;;;931.30;;
14698;SDS011;7439;50.804;4.602;2022-12-24T01:38:07;999.30;;;931.10;;
14698;SDS011;7439;50.804;4.602;2022-12-24T01:40:36;989.70;;;921.30;;
14698;SDS011;7439;50.804;4.602;2022-12-24T01:43:32;996.77;;;926.70;;
14698;SDS011;7439;50.804;4.602;2022-12-24T01:46:00;1000.13;;;930.97;;
14698;SDS011;7439;50.804;4.602;2022-12-24T01:48:31;992.97;;;924.67;;
14698;SDS011;7439;50.804;4.602;2022-12-24T01:51:03;1000.00;;;930.47;;
14698;SDS011;7439;50.804;4.602;2022-12-24T01:53:32;997.17;;;927.30;;
14698;SDS011;7439;50.804;4.602;2022-12-24T01:56:01;989.60;;;921.13;;
14698;SDS011;7439;50.804;4.602;2022-12-24T01:58:29;974.27;;;907.23;;
14698;SDS011;7439;50.804;4.602;2022-12-24T02:00:58;971.23;;;904.27;;
14698;SDS011;7439;50.804;4.602;2022-12-24T02:03:25;964.47;;;897.37;;
14698;SDS011;7439;50.804;4.602;2022-12-24T02:05:53;961.03;;;894.80;;
14698;SDS011;7439;50.804;4.602;2022-12-24T02:08:23;958.67;;;892.90;;
14698;SDS011;7439;50.804;4.602;2022-12-24T02:11:07;958.23;;;893.00;;
14698;SDS011;7439;50.804;4.602;2022-12-24T02:13:35;965.50;;;899.20;;
14698;SDS011;7439;50.804;4.602;2022-12-24T02:16:03;958.77;;;891.37;;
14698;SDS011;7439;50.804;4.602;2022-12-24T02:18:34;965.73;;;899.80;;
14698;SDS011;7439;50.804;4.602;2022-12-24T02:21:14;974.97;;;907.80;;
14698;SDS011;7439;50.804;4.602;2022-12-24T02:24:01;991.53;;;922.07;;
14698;SDS011;7439;50.804;4.602;2022-12-24T02:26:39;974.90;;;907.10;;
14698;SDS011;7439;50.804;4.602;2022-12-24T02:29:17;981.93;;;913.50;;
14698;SDS011;7439;50.804;4.602;2022-12-24T02:31:48;992.27;;;923.67;;
14698;SDS011;7439;50.804;4.602;2022-12-24T02:34:17;997.57;;;928.57;;
14698;SDS011;7439;50.804;4.602;2022-12-24T02:36:52;1001.17;;;931.27;;
14698;SDS011;7439;50.804;4.602;2022-12-24T02:39:23;980.77;;;912.60;;
14698;SDS011;7439;50.804;4.602;2022-12-24T02:41:53;998.70;;;929.47;;
14698;SDS011;7439;50.804;4.602;2022-12-24T02:44:33;983.83;;;915.83;;
14698;SDS011;7439;50.804;4.602;2022-12-24T02:47:03;994.97;;;925.90;;
14698;SDS011;7439;50.804;4.602;2022-12-24T02:49:31;986.33;;;917.97;;
14698;SDS011;7439;50.804;4.602;2022-12-24T02:51:58;991.60;;;923.23;;
14698;SDS011;7439;50.804;4.602;2022-12-24T02:54:25;998.50;;;930.20;;
14698;SDS011;7439;50.804;4.602;2022-12-24T02:56:56;996.63;;;928.07;;
14698;SDS011;7439;50.804;4.602;2022-12-24T02:59:31;985.93;;;917.77;;
14698;SDS011;7439;50.804;4.602;2022-12-24T03:02:03;1012.77;;;941.00;;
14698;SDS011;7439;50.804;4.602;2022-12-24T03:04:35;1039.53;;;965.20;;
14698;SDS011;7439;50.804;4.602;2022-12-24T03:07:12;1038.50;;;965.60;;
14698;SDS011;7439;50.804;4.602;2022-12-24T03:09:46;1014.47;;;944.10;;
14698;SDS011;7439;50.804;4.602;2022-12-24T03:12:16;998.17;;;930.43;;
14698;SDS011;7439;50.804;4.602;2022-12-24T03:14:45;972.87;;;907.43;;
14698;SDS011;7439;50.804;4.602;2022-12-24T03:17:15;969.00;;;904.60;;
14698;SDS011;7439;50.804;4.602;2022-12-24T03:19:43;983.87;;;917.17;;
14698;SDS011;7439;50.804;4.602;2022-12-24T03:22:11;974.67;;;908.23;;
14698;SDS011;7439;50.804;4.602;2022-12-24T03:24:39;973.23;;;907.50;;
14698;SDS011;7439;50.804;4.602;2022-12-24T03:27:06;985.70;;;918.77;;
14698;SDS011;7439;50.804;4.602;2022-12-24T03:29:35;981.93;;;915.30;;
14698;SDS011;7439;50.804;4.602;2022-12-24T03:32:04;991.50;;;923.53;;
14698;SDS011;7439;50.804;4.602;2022-12-24T03:34:33;994.77;;;926.57;;
14698;SDS011;7439;50.804;4.602;2022-12-24T03:37:00;1002.03;;;931.93;;
14698;SDS011;7439;50.804;4.602;2022-12-24T03:39:28;988.03;;;919.50;;
14698;SDS011;7439;50.804;4.602;2022-12-24T03:41:55;984.70;;;916.97;;
14698;SDS011;7439;50.804;4.602;2022-12-24T03:44:23;983.27;;;915.83;;
14698;SDS011;7439;50.804;4.602;2022-12-24T03:46:50;972.63;;;906.07;;
14698;SDS011;7439;50.804;4.602;2022-12-24T03:49:18;980.20;;;913.00;;
14698;SDS011;7439;50.804;4.602;2022-12-24T03:51:46;981.97;;;914.60;;
14698;SDS011;7439;50.804;4.602;2022-12-24T03:54:14;993.30;;;924.43;;
14698;SDS011;7439;50.804;4.602;2022-12-24T03:56:41;991.07;;;922.77;;
14698;SDS011;7439;50.804;4.602;2022-12-24T03:59:08;986.57;;;918.83;;
14698;SDS011;7439;50.804;4.602;2022-12-24T04:01:36;981.13;;;913.93;;
14698;SDS011;7439;50.804;4.602;2022-12-24T04:04:03;997.20;;;928.43;;
14698;SDS011;7439;50.804;4.602;2022-12-24T04:06:31;1010.43;;;939.67;;
14698;SDS011;7439;50.804;4.602;2022-12-24T04:08:59;999.87;;;930.00;;
14698;SDS011;7439;50.804;4.602;2022-12-24T04:11:29;1009.37;;;939.27;;
14698;SDS011;7439;50.804;4.602;2022-12-24T04:13:56;1003.20;;;932.17;;
14698;SDS011;7439;50.804;4.602;2022-12-24T04:16:24;998.80;;;927.93;;
14698;SDS011;7439;50.804;4.602;2022-12-24T04:18:52;1010.27;;;938.60;;
14698;SDS011;7439;50.804;4.602;2022-12-24T04:21:19;1004.30;;;934.40;;
14698;SDS011;7439;50.804;4.602;2022-12-24T04:23:46;1020.23;;;948.33;;
14698;SDS011;7439;50.804;4.602;2022-12-24T04:26:15;1025.93;;;953.63;;
14698;SDS011;7439;50.804;4.602;2022-12-24T04:28:43;1036.60;;;962.20;;
14698;SDS011;7439;50.804;4.602;2022-12-24T04:31:11;1031.77;;;957.80;;
14698;SDS011;7439;50.804;4.602;2022-12-24T04:33:38;1032.97;;;959.10;;
14698;SDS011;7439;50.804;4.602;2022-12-24T04:36:06;1048.80;;;973.63;;
14698;SDS011;7439;50.804;4.602;2022-12-24T04:38:34;1036.77;;;962.70;;
14698;SDS011;7439;50.804;4.602;2022-12-24T04:41:02;1035.30;;;960.90;;
14698;SDS011;7439;50.804;4.602;2022-12-24T04:43:31;1039.97;;;966.10;;
14698;SDS011;7439;50.804;4.602;2022-12-24T04:46:03;1035.30;;;962.10;;
14698;SDS011;7439;50.804;4.602;2022-12-24T04:48:30;1031.07;;;957.47;;
14698;SDS011;7439;50.804;4.602;2022-12-24T04:50:59;1029.63;;;956.97;;
14698;SDS011;7439;50.804;4.602;2022-12-24T04:53:27;1028.20;;;956.27;;
14698;SDS011;7439;50.804;4.602;2022-12-24T04:55:54;1019.77;;;947.03;;
14698;SDS011;7439;50.804;4.602;2022-12-24T04:58:22;1027.60;;;955.00;;
14698;SDS011;7439;50.804;4.602;2022-12-24T05:00:51;1018.70;;;946.10;;
14698;SDS011;7439;50.804;4.602;2022-12-24T05:03:18;1026.43;;;952.67;;
14698;SDS011;7439;50.804;4.602;2022-12-24T05:05:46;1031.43;;;957.67;;
14698;SDS011;7439;50.804;4.602;2022-12-24T05:08:13;1030.27;;;957.10;;
14698;SDS011;7439;50.804;4.602;2022-12-24T05:10:40;1020.30;;;948.00;;
14698;SDS011;7439;50.804;4.602;2022-12-24T05:13:08;1025.13;;;951.77;;
14698;SDS011;7439;50.804;4.602;2022-12-24T05:15:35;1024.63;;;952.53;;
14698;SDS011;7439;50.804;4.602;2022-12-24T05:18:04;1020.13;;;948.43;;
14698;SDS011;7439;50.804;4.602;2022-12-24T05:20:31;1016.97;;;945.73;;
14698;SDS011;7439;50.804;4.602;2022-12-24T05:22:59;1009.30;;;938.13;;
14698;SDS011;7439;50.804;4.602;2022-12-24T05:25:43;1009.43;;;938.43;;
14698;SDS011;7439;50.804;4.602;2022-12-24T05:28:28;1004.43;;;934.60;;
14698;SDS011;7439;50.804;4.602;2022-12-24T05:30:56;998.50;;;928.70;;
14698;SDS011;7439;50.804;4.602;2022-12-24T05:33:24;1013.00;;;941.87;;
14698;SDS011;7439;50.804;4.602;2022-12-24T05:35:52;1007.80;;;937.30;;
14698;SDS011;7439;50.804;4.602;2022-12-24T05:38:19;1000.30;;;930.73;;
14698;SDS011;7439;50.804;4.602;2022-12-24T05:40:47;1004.07;;;934.17;;
14698;SDS011;7439;50.804;4.602;2022-12-24T05:43:14;1008.33;;;938.73;;
14698;SDS011;7439;50.804;4.602;2022-12-24T05:45:41;993.50;;;924.63;;
14698;SDS011;7439;50.804;4.602;2022-12-24T05:48:09;990.37;;;921.10;;
14698;SDS011;7439;50.804;4.602;2022-12-24T05:50:39;980.10;;;912.07;;
14698;SDS011;7439;50.804;4.602;2022-12-24T05:53:06;1001.63;;;932.80;;
14698;SDS011;7439;50.804;4.602;2022-12-24T05:55:34;980.03;;;912.93;;
14698;SDS011;7439;50.804;4.602;2022-12-24T05:58:01;974.83;;;907.30;;
14698;SDS011;7439;50.804;4.602;2022-12-24T06:00:28;965.50;;;898.73;;
14698;SDS011;7439;50.804;4.602;2022-12-24T06:02:56;978.47;;;912.53;;
14698;SDS011;7439;50.804;4.602;2022-12-24T06:05:23;972.27;;;906.97;;
14698;SDS011;7439;50.804;4.602;2022-12-24T06:07:52;953.73;;;890.10;;
14698;SDS011;7439;50.804;4.602;2022-12-24T06:10:19;954.20;;;891.60;;
14698;SDS011;7439;50.804;4.602;2022-12-24T06:12:47;934.57;;;872.90;;
14698;SDS011;7439;50.804;4.602;2022-12-24T06:15:14;910.23;;;850.93;;
14698;SDS011;7439;50.804;4.602;2022-12-24T06:17:42;896.50;;;838.67;;
14698;SDS011;7439;50.804;4.602;2022-12-24T06:20:09;888.10;;;831.47;;
14698;SDS011;7439;50.804;4.602;2022-12-24T06:22:37;885.80;;;829.17;;
14698;SDS011;7439;50.804;4.602;2022-12-24T06:25:06;860.10;;;805.37;;
14698;SDS011;7439;50.804;4.602;2022-12-24T06:27:33;855.40;;;801.73;;
14698;SDS011;7439;50.804;4.602;2022-12-24T06:30:01;830.40;;;779.10;;
14698;SDS011;7439;50.804;4.602;2022-12-24T06:32:28;832.40;;;780.03;;
14698;SDS011;7439;50.804;4.602;2022-12-24T06:34:55;864.43;;;809.33;;
14698;SDS011;7439;50.804;4.602;2022-12-24T06:37:23;853.30;;;798.77;;
14698;SDS011;7439;50.804;4.602;2022-12-24T06:39:50;861.27;;;806.90;;
14698;SDS011;7439;50.804;4.602;2022-12-24T06:42:19;856.30;;;802.97;;
14698;SDS011;7439;50.804;4.602;2022-12-24T06:44:48;854.87;;;799.83;;
14698;SDS011;7439;50.804;4.602;2022-12-24T06:47:15;851.47;;;797.53;;
14698;SDS011;7439;50.804;4.602;2022-12-24T06:49:43;846.23;;;791.90;;
14698;SDS011;7439;50.804;4.602;2022-12-24T06:52:10;843.83;;;790.87;;
14698;SDS011;7439;50.804;4.602;2022-12-24T06:54:37;847.60;;;794.67;;
14698;SDS011;7439;50.804;4.602;2022-12-24T06:57:05;827.57;;;775.90;;
14698;SDS011;7439;50.804;4.602;2022-12-24T06:59:34;813.07;;;763.40;;
14698;SDS011;7439;50.804;4.602;2022-12-24T07:02:01;805.20;;;756.03;;
14698;SDS011;7439;50.804;4.602;2022-12-24T07:04:29;799.73;;;751.30;;
14698;SDS011;7439;50.804;4.602;2022-12-24T07:06:56;775.60;;;729.60;;
14698;SDS011;7439;50.804;4.602;2022-12-24T07:09:23;773.57;;;727.47;;
14698;SDS011;7439;50.804;4.602;2022-12-24T07:11:51;774.60;;;728.77;;
14698;SDS011;7439;50.804;4.602;2022-12-24T07:14:18;750.97;;;706.90;;
14698;SDS011;7439;50.804;4.602;2022-12-24T07:16:47;734.57;;;691.43;;
14698;SDS011;7439;50.804;4.602;2022-12-24T07:19:15;714.00;;;672.57;;
14698;SDS011;7439;50.804;4.602;2022-12-24T07:21:42;728.80;;;686.13;;
14698;SDS011;7439;50.804;4.602;2022-12-24T07:24:09;713.77;;;673.57;;
14698;SDS011;7439;50.804;4.602;2022-12-24T07:26:37;704.80;;;665.00;;
14698;SDS011;7439;50.804;4.602;2022-12-24T07:29:04;682.43;;;644.60;;
14698;SDS011;7439;50.804;4.602;2022-12-24T07:31:32;660.90;;;623.50;;
14698;SDS011;7439;50.804;4.602;2022-12-24T07:34:01;642.97;;;606.77;;
14698;SDS011;7439;50.804;4.602;2022-12-24T07:36:28;642.97;;;607.37;;
14698;SDS011;7439;50.804;4.602;2022-12-24T07:38:55;633.17;;;598.47;;
14698;SDS011;7439;50.804;4.602;2022-12-24T07:41:23;624.77;;;590.53;;
14698;SDS011;7439;50.804;4.602;2022-12-24T07:43:50;615.23;;;580.00;;
14698;SDS011;7439;50.804;4.602;2022-12-24T07:46:17;583.97;;;551.40;;
14698;SDS011;7439;50.804;4.602;2022-12-24T07:48:45;566.27;;;534.53;;
14698;SDS011;7439;50.804;4.602;2022-12-24T07:51:14;562.20;;;532.03;;
14698;SDS011;7439;50.804;4.602;2022-12-24T07:53:41;544.63;;;513.93;;
14698;SDS011;7439;50.804;4.602;2022-12-24T07:56:12;519.33;;;490.93;;
14698;SDS011;7439;50.804;4.602;2022-12-24T07:58:40;508.60;;;481.07;;
14698;SDS011;7439;50.804;4.602;2022-12-24T08:01:07;497.17;;;470.63;;
14698;SDS011;7439;50.804;4.602;2022-12-24T08:03:35;486.33;;;460.33;;
14698;SDS011;7439;50.804;4.602;2022-12-24T08:06:02;459.90;;;435.27;;
14698;SDS011;7439;50.804;4.602;2022-12-24T08:08:31;430.17;;;407.30;;
14698;SDS011;7439;50.804;4.602;2022-12-24T08:10:59;421.13;;;397.80;;
14698;SDS011;7439;50.804;4.602;2022-12-24T08:13:28;391.57;;;370.20;;
14698;SDS011;7439;50.804;4.602;2022-12-24T08:15:55;366.03;;;345.73;;
14698;SDS011;7439;50.804;4.602;2022-12-24T08:18:22;345.93;;;325.57;;
14698;SDS011;7439;50.804;4.602;2022-12-24T08:20:50;334.33;;;315.67;;
14698;SDS011;7439;50.804;4.602;2022-12-24T08:23:17;321.60;;;303.77;;
14698;SDS011;7439;50.804;4.602;2022-12-24T08:25:46;315.23;;;297.63;;
14698;SDS011;7439;50.804;4.602;2022-12-24T08:28:15;311.70;;;294.87;;
14698;SDS011;7439;50.804;4.602;2022-12-24T08:30:43;294.47;;;278.33;;
14698;SDS011;7439;50.804;4.602;2022-12-24T08:33:10;293.33;;;276.63;;
14698;SDS011;7439;50.804;4.602;2022-12-24T08:35:37;296.00;;;280.07;;
14698;SDS011;7439;50.804;4.602;2022-12-24T08:38:05;287.40;;;271.17;;
14698;SDS011;7439;50.804;4.602;2022-12-24T08:40:32;265.77;;;251.10;;
14698;SDS011;7439;50.804;4.602;2022-12-24T08:43:01;254.13;;;240.27;;
14698;SDS011;7439;50.804;4.602;2022-12-24T08:45:29;244.37;;;231.07;;
14698;SDS011;7439;50.804;4.602;2022-12-24T08:47:57;237.73;;;224.10;;
14698;SDS011;7439;50.804;4.602;2022-12-24T08:50:25;243.93;;;230.50;;
14698;SDS011;7439;50.804;4.602;2022-12-24T08:52:53;241.40;;;227.83;;
14698;SDS011;7439;50.804;4.602;2022-12-24T08:55:21;238.47;;;224.73;;
14698;SDS011;7439;50.804;4.602;2022-12-24T08:57:48;215.80;;;204.03;;
14698;SDS011;7439;50.804;4.602;2022-12-24T09:00:17;204.50;;;192.87;;
14698;SDS011;7439;50.804;4.602;2022-12-24T09:02:45;198.47;;;187.60;;
14698;SDS011;7439;50.804;4.602;2022-12-24T09:05:12;191.83;;;180.83;;
14698;SDS011;7439;50.804;4.602;2022-12-24T09:07:39;181.00;;;170.53;;
14698;SDS011;7439;50.804;4.602;2022-12-24T09:10:07;160.73;;;151.03;;
14698;SDS011;7439;50.804;4.602;2022-12-24T09:12:35;157.87;;;148.50;;
14698;SDS011;7439;50.804;4.602;2022-12-24T09:15:02;152.23;;;142.67;;
14698;SDS011;7439;50.804;4.602;2022-12-24T09:17:33;152.77;;;143.40;;
14698;SDS011;7439;50.804;4.602;2022-12-24T09:20:01;151.70;;;142.33;;
14698;SDS011;7439;50.804;4.602;2022-12-24T09:22:28;156.20;;;146.13;;
14698;SDS011;7439;50.804;4.602;2022-12-24T09:24:55;151.30;;;141.87;;
14698;SDS011;7439;50.804;4.602;2022-12-24T09:27:23;147.83;;;138.70;;
14698;SDS011;7439;50.804;4.602;2022-12-24T09:29:50;141.63;;;132.77;;
14698;SDS011;7439;50.804;4.602;2022-12-24T09:32:18;140.20;;;130.87;;
14698;SDS011;7439;50.804;4.602;2022-12-24T09:34:47;121.13;;;113.20;;
14698;SDS011;7439;50.804;4.602;2022-12-24T09:37:14;140.33;;;131.37;;
14698;SDS011;7439;50.804;4.602;2022-12-24T09:39:42;143.53;;;134.87;;
14698;SDS011;7439;50.804;4.602;2022-12-24T09:42:11;146.37;;;137.47;;
14698;SDS011;7439;50.804;4.602;2022-12-24T09:44:44;143.83;;;134.87;;
14698;SDS011;7439;50.804;4.602;2022-12-24T09:47:15;142.67;;;134.33;;
14698;SDS011;7439;50.804;4.602;2022-12-24T09:49:45;141.93;;;133.47;;
14698;SDS011;7439;50.804;4.602;2022-12-24T09:52:18;143.63;;;134.73;;
14698;SDS011;7439;50.804;4.602;2022-12-24T09:54:48;143.17;;;134.50;;
14698;SDS011;7439;50.804;4.602;2022-12-24T09:57:19;147.03;;;138.57;;
14698;SDS011;7439;50.804;4.602;2022-12-24T09:59:49;138.97;;;130.60;;
14698;SDS011;7439;50.804;4.602;2022-12-24T10:02:17;137.57;;;129.20;;
14698;SDS011;7439;50.804;4.602;2022-12-24T10:04:45;137.80;;;129.57;;
14698;SDS011;7439;50.804;4.602;2022-12-24T10:07:19;140.13;;;130.83;;
14698;SDS011;7439;50.804;4.602;2022-12-24T10:09:51;137.93;;;129.27;;
14698;SDS011;7439;50.804;4.602;2022-12-24T10:12:24;139.93;;;130.47;;
14698;SDS011;7439;50.804;4.602;2022-12-24T10:14:55;134.10;;;125.60;;
14698;SDS011;7439;50.804;4.602;2022-12-24T10:17:29;137.20;;;128.90;;
14698;SDS011;7439;50.804;4.602;2022-12-24T10:20:01;132.70;;;124.93;;
14698;SDS011;7439;50.804;4.602;2022-12-24T10:22:35;133.57;;;124.77;;
14698;SDS011;7439;50.804;4.602;2022-12-24T10:25:08;136.53;;;128.33;;
14698;SDS011;7439;50.804;4.602;2022-12-24T10:27:40;136.90;;;129.00;;
14698;SDS011;7439;50.804;4.602;2022-12-24T10:30:11;143.03;;;134.33;;
14698;SDS011;7439;50.804;4.602;2022-12-24T10:32:39;140.33;;;132.33;;
14698;SDS011;7439;50.804;4.602;2022-12-24T10:35:14;132.93;;;125.33;;
14698;SDS011;7439;50.804;4.602;2022-12-24T10:37:45;128.00;;;120.77;;
14698;SDS011;7439;50.804;4.602;2022-12-24T10:40:15;116.47;;;109.47;;
14698;SDS011;7439;50.804;4.602;2022-12-24T10:42:45;104.70;;;97.23;;
14698;SDS011;7439;50.804;4.602;2022-12-24T10:45:13;119.87;;;112.33;;
14698;SDS011;7439;50.804;4.602;2022-12-24T10:47:41;122.93;;;115.63;;
14698;SDS011;7439;50.804;4.602;2022-12-24T10:50:12;117.93;;;110.40;;
14698;SDS011;7439;50.804;4.602;2022-12-24T10:52:41;98.87;;;92.20;;
14698;SDS011;7439;50.804;4.602;2022-12-24T10:55:20;111.60;;;104.47;;
14698;SDS011;7439;50.804;4.602;2022-12-24T10:57:55;123.97;;;116.23;;
14698;SDS011;7439;50.804;4.602;2022-12-24T11:00:24;128.93;;;121.17;;
14698;SDS011;7439;50.804;4.602;2022-12-24T11:03:04;125.63;;;117.83;;
14698;SDS011;7439;50.804;4.602;2022-12-24T11:05:32;123.23;;;115.50;;
14698;SDS011;7439;50.804;4.602;2022-12-24T11:08:00;129.47;;;121.47;;
14698;SDS011;7439;50.804;4.602;2022-12-24T11:10:29;121.57;;;114.60;;
14698;SDS011;7439;50.804;4.602;2022-12-24T11:12:57;119.93;;;112.13;;
14698;SDS011;7439;50.804;4.602;2022-12-24T11:15:25;111.50;;;104.13;;
14698;SDS011;7439;50.804;4.602;2022-12-24T11:17:53;109.57;;;102.87;;
14698;SDS011;7439;50.804;4.602;2022-12-24T11:20:24;112.27;;;105.70;;
14698;SDS011;7439;50.804;4.602;2022-12-24T11:22:52;106.93;;;99.30;;
14698;SDS011;7439;50.804;4.602;2022-12-24T11:25:21;108.97;;;102.67;;
14698;SDS011;7439;50.804;4.602;2022-12-24T11:27:50;115.20;;;108.17;;
14698;SDS011;7439;50.804;4.602;2022-12-24T11:30:19;122.53;;;114.70;;
14698;SDS011;7439;50.804;4.602;2022-12-24T11:32:47;115.97;;;109.03;;
14698;SDS011;7439;50.804;4.602;2022-12-24T11:35:16;118.53;;;110.73;;
14698;SDS011;7439;50.804;4.602;2022-12-24T11:37:45;118.00;;;110.57;;
14698;SDS011;7439;50.804;4.602;2022-12-24T11:40:20;122.73;;;114.67;;
14698;SDS011;7439;50.804;4.602;2022-12-24T11:42:48;111.97;;;104.13;;
14698;SDS011;7439;50.804;4.602;2022-12-24T11:45:20;107.13;;;99.90;;
14698;SDS011;7439;50.804;4.602;2022-12-24T11:47:48;97.17;;;90.53;;
14698;SDS011;7439;50.804;4.602;2022-12-24T11:50:23;97.20;;;90.50;;
14698;SDS011;7439;50.804;4.602;2022-12-24T11:52:51;102.57;;;96.43;;
14698;SDS011;7439;50.804;4.602;2022-12-24T11:55:23;109.37;;;101.97;;
14698;SDS011;7439;50.804;4.602;2022-12-24T11:57:56;112.40;;;105.37;;
14698;SDS011;7439;50.804;4.602;2022-12-24T12:00:26;117.03;;;109.33;;
14698;SDS011;7439;50.804;4.602;2022-12-24T12:02:54;95.30;;;88.63;;
14698;SDS011;7439;50.804;4.602;2022-12-24T12:05:24;98.27;;;91.33;;
14698;SDS011;7439;50.804;4.602;2022-12-24T12:07:54;68.80;;;63.50;;
14698;SDS011;7439;50.804;4.602;2022-12-24T12:10:24;48.30;;;43.57;;
14698;SDS011;7439;50.804;4.602;2022-12-24T12:12:56;89.93;;;84.23;;
14698;SDS011;7439;50.804;4.602;2022-12-24T12:15:24;140.63;;;132.77;;
14698;SDS011;7439;50.804;4.602;2022-12-24T12:17:55;122.10;;;114.53;;
14698;SDS011;7439;50.804;4.602;2022-12-24T12:20:27;129.23;;;121.57;;
14698;SDS011;7439;50.804;4.602;2022-12-24T12:22:57;140.47;;;132.20;;
14698;SDS011;7439;50.804;4.602;2022-12-24T12:25:26;132.00;;;124.07;;
14698;SDS011;7439;50.804;4.602;2022-12-24T12:27:57;123.77;;;116.40;;
14698;SDS011;7439;50.804;4.602;2022-12-24T12:30:26;117.37;;;110.60;;
14698;SDS011;7439;50.804;4.602;2022-12-24T12:32:58;116.53;;;108.83;;
14698;SDS011;7439;50.804;4.602;2022-12-24T12:35:28;116.87;;;110.10;;
14698;SDS011;7439;50.804;4.602;2022-12-24T12:37:56;108.87;;;102.33;;
14698;SDS011;7439;50.804;4.602;2022-12-24T12:40:28;113.17;;;106.43;;
14698;SDS011;7439;50.804;4.602;2022-12-24T12:43:00;110.13;;;103.33;;
14698;SDS011;7439;50.804;4.602;2022-12-24T12:45:32;109.10;;;102.13;;
14698;SDS011;7439;50.804;4.602;2022-12-24T12:48:08;113.50;;;106.23;;
14698;SDS011;7439;50.804;4.602;2022-12-24T12:50:39;108.37;;;100.93;;
14698;SDS011;7439;50.804;4.602;2022-12-24T12:53:15;101.47;;;94.97;;
14698;SDS011;7439;50.804;4.602;2022-12-24T12:55:49;103.27;;;97.03;;
14698;SDS011;7439;50.804;4.602;2022-12-24T12:58:19;101.70;;;95.30;;
14698;SDS011;7439;50.804;4.602;2022-12-24T13:00:51;102.30;;;95.33;;
14698;SDS011;7439;50.804;4.602;2022-12-24T13:03:27;102.07;;;96.23;;
14698;SDS011;7439;50.804;4.602;2022-12-24T13:06:01;101.43;;;95.63;;
14698;SDS011;7439;50.804;4.602;2022-12-24T13:08:48;102.83;;;96.33;;
14698;SDS011;7439;50.804;4.602;2022-12-24T13:11:23;103.60;;;97.20;;
14698;SDS011;7439;50.804;4.602;2022-12-24T13:13:59;102.53;;;96.17;;
14698;SDS011;7439;50.804;4.602;2022-12-24T13:16:35;103.63;;;97.23;;
14698;SDS011;7439;50.804;4.602;2022-12-24T13:19:08;102.83;;;96.47;;
14698;SDS011;7439;50.804;4.602;2022-12-24T13:21:41;102.70;;;95.90;;
14698;SDS011;7439;50.804;4.602;2022-12-24T13:24:13;85.97;;;79.57;;
14698;SDS011;7439;50.804;4.602;2022-12-24T13:26:41;62.20;;;56.80;;
14698;SDS011;7439;50.804;4.602;2022-12-24T13:31:58;79.27;;;73.83;;
14698;SDS011;7439;50.804;4.602;2022-12-24T13:34:47;83.27;;;76.97;;
14698;SDS011;7439;50.804;4.602;2022-12-24T13:37:18;82.00;;;75.63;;
14698;SDS011;7439;50.804;4.602;2022-12-24T13:42:47;70.73;;;65.70;;
14698;SDS011;7439;50.804;4.602;2022-12-24T13:45:40;77.77;;;72.03;;
14698;SDS011;7439;50.804;4.602;2022-12-24T13:48:12;80.20;;;75.03;;
14698;SDS011;7439;50.804;4.602;2022-12-24T13:50:43;85.97;;;81.07;;
14698;SDS011;7439;50.804;4.602;2022-12-24T13:53:18;59.13;;;54.57;;
14698;SDS011;7439;50.804;4.602;2022-12-24T13:55:48;48.00;;;44.10;;
14698;SDS011;7439;50.804;4.602;2022-12-24T13:58:16;57.43;;;52.97;;
14698;SDS011;7439;50.804;4.602;2022-12-24T14:00:50;66.07;;;61.73;;
14698;SDS011;7439;50.804;4.602;2022-12-24T14:03:21;70.53;;;65.73;;
14698;SDS011;7439;50.804;4.602;2022-12-24T14:05:51;70.20;;;65.07;;
14698;SDS011;7439;50.804;4.602;2022-12-24T14:08:27;91.90;;;86.10;;
14698;SDS011;7439;50.804;4.602;2022-12-24T14:13:49;87.97;;;81.93;;
14698;SDS011;7439;50.804;4.602;2022-12-24T14:16:17;104.93;;;98.53;;
14698;SDS011;7439;50.804;4.602;2022-12-24T14:18:46;116.37;;;109.27;;
14698;SDS011;7439;50.804;4.602;2022-12-24T14:21:16;104.10;;;97.57;;
14698;SDS011;7439;50.804;4.602;2022-12-24T14:23:48;90.17;;;84.53;;
14698;SDS011;7439;50.804;4.602;2022-12-24T14:26:17;86.37;;;80.77;;
14698;SDS011;7439;50.804;4.602;2022-12-24T14:28:49;86.33;;;80.93;;
14698;SDS011;7439;50.804;4.602;2022-12-24T14:31:19;83.03;;;77.87;;
14698;SDS011;7439;50.804;4.602;2022-12-24T14:33:46;85.93;;;79.90;;